createdAt,value
2018-11-28T00:01:30.232Z,83.44
2018-11-28T00:03:42.425Z,83.41
2018-11-28T00:05:54.617Z,82.97
2018-11-28T00:08:06.804Z,83.62
2018-11-28T00:10:19.033Z,83.26
2018-11-28T00:12:31.254Z,83.32
2018-11-28T00:14:43.449Z,83.24
2018-11-28T00:16:55.808Z,82.89
2018-11-28T00:19:08.009Z,83.07
2018-11-28T00:21:20.186Z,82.99
2018-11-28T00:23:32.368Z,83.54
2018-11-28T00:25:44.545Z,83.97
2018-11-28T00:27:56.810Z,83.52
2018-11-28T00:30:11.253Z,83.66
2018-11-28T00:32:23.434Z,83.53
2018-11-28T00:34:35.597Z,82.91
2018-11-28T00:36:47.749Z,82.86
2018-11-28T00:38:59.960Z,83.68
2018-11-28T00:41:12.132Z,83.61
2018-11-28T00:43:24.337Z,83.35
2018-11-28T00:45:36.589Z,83.83
2018-11-28T00:47:48.880Z,83.08
2018-11-28T00:50:01.065Z,83.29
2018-11-28T00:52:13.257Z,83.85
2018-11-28T00:54:25.495Z,83.62
2018-11-28T00:56:37.653Z,83.72
2018-11-28T00:58:49.832Z,84.63
2018-11-28T01:01:02.064Z,83.65
2018-11-28T01:03:14.221Z,84.02
2018-11-28T01:05:26.471Z,83.80
2018-11-28T01:07:38.919Z,84.21
2018-11-28T01:09:51.147Z,84.57
2018-11-28T01:12:03.437Z,84.99
2018-11-28T01:14:15.622Z,84.39
2018-11-28T01:16:27.808Z,84.55
2018-11-28T01:18:40.058Z,84.44
2018-11-28T01:20:52.336Z,84.20
2018-11-28T01:23:04.583Z,84.12
2018-11-28T01:25:17.834Z,83.84
2018-11-28T01:27:30.022Z,84.89
2018-11-28T01:29:42.189Z,84.94
2018-11-28T01:31:54.378Z,84.28
2018-11-28T01:34:06.572Z,85.19
2018-11-28T01:36:18.954Z,84.62
2018-11-28T01:38:31.145Z,84.71
2018-11-28T01:40:43.484Z,85.22
2018-11-28T01:42:55.652Z,84.49
2018-11-28T01:45:09.169Z,84.79
2018-11-28T01:47:21.381Z,85.38
2018-11-28T01:49:33.560Z,84.97
2018-11-28T01:51:45.781Z,85.36
2018-11-28T01:53:57.985Z,84.26
2018-11-28T01:56:10.173Z,84.54
2018-11-28T01:58:22.405Z,84.58
2018-11-28T02:00:34.608Z,84.34
2018-11-28T02:02:47.852Z,84.69
2018-11-28T02:05:00.036Z,85.02
2018-11-28T02:07:12.239Z,84.90
2018-11-28T02:09:24.427Z,85.11
2018-11-28T02:11:36.673Z,84.40
2018-11-28T02:13:48.852Z,84.39
2018-11-28T02:16:01.143Z,84.28
2018-11-28T02:18:13.316Z,84.96
2018-11-28T02:20:25.477Z,84.91
2018-11-28T02:22:37.650Z,84.44
2018-11-28T02:24:49.849Z,83.98
2018-11-28T02:27:02.045Z,84.42
2018-11-28T02:29:14.248Z,84.51
2018-11-28T02:31:26.451Z,84.39
2018-11-28T02:33:38.642Z,84.55
2018-11-28T02:35:50.805Z,84.45
2018-11-28T02:38:03.023Z,84.82
2018-11-28T02:40:16.844Z,84.75
2018-11-28T02:42:29.031Z,84.16
2018-11-28T02:44:41.240Z,84.85
2018-11-28T02:46:53.428Z,84.42
2018-11-28T02:49:05.630Z,84.48
2018-11-28T02:51:17.845Z,85.14
2018-11-28T02:53:30.063Z,85.46
2018-11-28T02:55:42.230Z,85.60
2018-11-28T02:57:54.426Z,84.69
2018-11-28T03:00:12.540Z,85.03
2018-11-28T03:02:24.740Z,85.39
2018-11-28T03:04:36.928Z,85.12
2018-11-28T03:06:49.208Z,85.10
2018-11-28T03:09:01.456Z,85.12
2018-11-28T03:11:13.657Z,85.46
2018-11-28T03:13:25.845Z,85.82
2018-11-28T03:15:38.141Z,85.30
2018-11-28T03:17:50.351Z,85.16
2018-11-28T03:20:02.626Z,85.06
2018-11-28T03:22:14.808Z,85.13
2018-11-28T03:24:27.029Z,85.31
2018-11-28T03:26:39.250Z,85.87
2018-11-28T03:28:57.491Z,86.04
2018-11-28T03:31:09.710Z,85.35
2018-11-28T03:33:21.906Z,85.70
2018-11-28T03:35:34.165Z,85.32
2018-11-28T03:37:46.354Z,85.30
2018-11-28T03:39:58.526Z,86.13
2018-11-28T03:42:10.756Z,85.68
2018-11-28T03:44:22.932Z,86.10
2018-11-28T03:46:35.172Z,85.51
2018-11-28T03:48:47.350Z,86.31
2018-11-28T03:51:00.722Z,86.27
2018-11-28T03:53:11.768Z,86.10
2018-11-28T03:55:23.944Z,85.82
2018-11-28T03:57:36.146Z,85.75
2018-11-28T03:59:48.317Z,85.40
2018-11-28T04:02:00.517Z,86.42
2018-11-28T04:04:12.732Z,85.84
2018-11-28T04:06:24.921Z,86.47
2018-11-28T04:08:37.137Z,85.63
2018-11-28T04:10:49.306Z,86.31
2018-11-28T04:13:01.537Z,86.33
2018-11-28T04:15:17.669Z,86.30
2018-11-28T04:17:29.846Z,86.05
2018-11-28T04:19:42.032Z,85.93
2018-11-28T04:21:54.265Z,86.07
2018-11-28T04:24:06.454Z,85.59
2018-11-28T04:26:18.617Z,85.38
2018-11-28T04:28:30.832Z,85.19
2018-11-28T04:30:43.060Z,85.80
2018-11-28T04:32:55.514Z,85.14
2018-11-28T04:35:09.288Z,85.41
2018-11-28T04:37:21.461Z,85.76
2018-11-28T04:39:33.649Z,85.22
2018-11-28T04:41:45.821Z,85.76
2018-11-28T04:43:57.999Z,85.20
2018-11-28T04:46:10.203Z,84.80
2018-11-28T04:48:22.452Z,84.64
2018-11-28T04:50:34.636Z,84.49
2018-11-28T04:52:46.823Z,84.91
2018-11-28T04:54:59.020Z,84.52
2018-11-28T04:57:11.274Z,84.31
2018-11-28T04:59:23.458Z,84.67
2018-11-28T05:01:35.692Z,83.66
2018-11-28T05:03:47.880Z,84.14
2018-11-28T05:06:00.089Z,83.98
2018-11-28T05:08:12.318Z,83.81
2018-11-28T05:10:26.590Z,84.79
2018-11-28T05:12:38.813Z,83.85
2018-11-28T05:14:51.213Z,83.58
2018-11-28T05:17:03.503Z,84.55
2018-11-28T05:19:15.652Z,83.76
2018-11-28T05:21:27.877Z,83.45
2018-11-28T05:23:40.075Z,83.49
2018-11-28T05:25:52.425Z,84.11
2018-11-28T05:28:04.675Z,83.70
2018-11-28T05:30:18.761Z,84.15
2018-11-28T05:32:30.943Z,84.27
2018-11-28T05:34:43.168Z,84.34
2018-11-28T05:36:55.385Z,83.49
2018-11-28T05:39:07.593Z,84.10
2018-11-28T05:41:19.780Z,84.27
2018-11-28T05:43:31.995Z,84.22
2018-11-28T05:45:44.177Z,84.21
2018-11-28T05:47:56.371Z,84.07
2018-11-28T05:50:10.597Z,84.23
2018-11-28T05:52:22.797Z,83.60
2018-11-28T05:54:34.963Z,83.71
2018-11-28T05:56:47.149Z,85.00
2018-11-28T05:58:59.358Z,84.38
2018-11-28T06:01:11.709Z,84.73
2018-11-28T06:03:23.876Z,85.20
2018-11-28T06:05:36.133Z,84.82
2018-11-28T06:07:48.365Z,85.11
2018-11-28T06:10:00.576Z,84.27
2018-11-28T06:12:12.824Z,84.26
2018-11-28T06:14:25.013Z,84.24
2018-11-28T06:16:37.430Z,84.77
2018-11-28T06:18:49.641Z,85.24
2018-11-28T06:21:01.828Z,84.49
2018-11-28T06:23:14.006Z,84.26
2018-11-28T06:25:26.194Z,84.99
2018-11-28T06:27:38.367Z,84.28
2018-11-28T06:29:50.548Z,84.90
2018-11-28T06:32:02.732Z,84.20
2018-11-28T06:34:14.919Z,84.20
2018-11-28T06:36:27.097Z,84.98
2018-11-28T06:38:39.301Z,84.35
2018-11-28T06:40:51.478Z,85.00
2018-11-28T06:43:03.968Z,84.53
2018-11-28T06:45:17.406Z,84.88
2018-11-28T06:47:29.585Z,84.85
2018-11-28T06:49:41.793Z,84.46
2018-11-28T06:51:53.980Z,83.68
2018-11-28T06:54:06.167Z,84.37
2018-11-28T06:56:18.368Z,83.84
2018-11-28T06:58:30.583Z,84.06
2018-11-28T07:00:42.811Z,83.84
2018-11-28T07:02:55.095Z,83.71
2018-11-28T07:05:07.526Z,84.52
2018-11-28T07:07:19.726Z,84.03
2018-11-28T07:09:32.007Z,84.56
2018-11-28T07:11:44.243Z,83.54
2018-11-28T07:13:56.520Z,83.84
2018-11-28T07:16:08.737Z,83.84
2018-11-28T07:18:32.238Z,84.31
2018-11-28T07:20:44.481Z,83.91
2018-11-28T07:22:56.660Z,84.23
2018-11-28T07:25:11.069Z,83.23
2018-11-28T07:27:23.324Z,82.77
2018-11-28T07:29:35.468Z,82.82
2018-11-28T07:31:47.711Z,83.33
2018-11-28T07:33:59.925Z,83.13
2018-11-28T07:36:12.149Z,82.29
2018-11-28T07:38:24.332Z,82.60
2018-11-28T07:40:38.037Z,82.72
2018-11-28T07:43:22.221Z,82.93
2018-11-28T07:45:34.378Z,82.18
2018-11-28T07:47:46.607Z,83.01
2018-11-28T07:49:58.809Z,82.52
2018-11-28T07:52:11.168Z,83.45
2018-11-28T07:54:23.382Z,83.26
2018-11-28T07:56:35.565Z,83.30
2018-11-28T07:58:47.725Z,83.10
2018-11-28T08:00:59.908Z,82.16
2018-11-28T08:03:12.371Z,81.57
2018-11-28T08:05:24.312Z,81.52
2018-11-28T08:07:36.560Z,81.09
2018-11-28T08:09:48.740Z,81.80
2018-11-28T08:12:00.994Z,80.86
2018-11-28T08:14:13.230Z,80.62
2018-11-28T08:16:25.404Z,80.15
2018-11-28T08:18:37.623Z,79.92
2018-11-28T08:20:49.806Z,80.41
2018-11-28T08:23:02.008Z,79.51
2018-11-28T08:25:15.256Z,80.11
2018-11-28T08:27:27.457Z,79.49
2018-11-28T08:29:39.632Z,79.42
2018-11-28T08:31:51.826Z,79.78
2018-11-28T08:34:04.128Z,79.95
2018-11-28T08:36:16.286Z,79.18
2018-11-28T08:38:28.489Z,80.07
2018-11-28T08:40:40.694Z,80.06
2018-11-28T08:42:53.892Z,79.22
2018-11-28T08:45:08.479Z,80.22
2018-11-28T08:47:20.673Z,79.46
2018-11-28T08:49:32.861Z,80.04
2018-11-28T08:51:45.030Z,78.91
2018-11-28T08:53:57.277Z,79.52
2018-11-28T08:56:09.464Z,79.11
2018-11-28T08:58:21.725Z,78.05
2018-11-28T09:00:34.029Z,78.85
2018-11-28T09:02:47.301Z,77.07
2018-11-28T09:04:59.544Z,77.70
2018-11-28T09:07:11.825Z,76.17
2018-11-28T09:09:24.074Z,76.68
2018-11-28T09:11:36.253Z,76.75
2018-11-28T09:13:48.475Z,76.42
2018-11-28T09:16:00.626Z,76.22
2018-11-28T09:18:12.821Z,76.26
2018-11-28T09:20:25.057Z,74.99
2018-11-28T09:22:37.314Z,75.23
2018-11-28T09:24:49.534Z,75.51
2018-11-28T09:27:01.711Z,73.87
2018-11-28T09:29:13.968Z,73.94
2018-11-28T09:31:26.225Z,75.25
2018-11-28T09:33:38.401Z,74.20
2018-11-28T09:35:50.691Z,74.03
2018-11-28T09:38:02.861Z,74.00
2018-11-28T09:40:24.833Z,73.68
2018-11-28T09:42:37.486Z,73.16
2018-11-28T09:44:49.720Z,74.51
2018-11-28T09:47:01.926Z,73.62
2018-11-28T09:49:14.197Z,73.35
2018-11-28T09:51:26.419Z,74.07
2018-11-28T09:53:38.654Z,73.45
2018-11-28T09:55:50.861Z,73.69
2018-11-28T09:58:03.070Z,73.57
2018-11-28T10:00:19.204Z,73.78
2018-11-28T10:02:31.445Z,73.71
2018-11-28T10:04:43.642Z,73.36
2018-11-28T10:06:55.924Z,73.80
2018-11-28T10:09:08.449Z,72.62
2018-11-28T10:11:20.680Z,72.72
2018-11-28T10:13:32.844Z,72.48
2018-11-28T10:15:45.049Z,72.82
2018-11-28T10:17:57.391Z,72.48
2018-11-28T10:20:10.883Z,73.27
2018-11-28T10:22:23.178Z,73.86
2018-11-28T10:24:35.348Z,73.26
2018-11-28T10:26:47.551Z,71.69
2018-11-28T10:28:59.720Z,72.06
2018-11-28T10:31:11.908Z,71.55
2018-11-28T10:33:24.152Z,71.16
2018-11-28T10:35:37.001Z,71.20
2018-11-28T10:37:49.258Z,72.01
2018-11-28T10:40:01.484Z,72.48
2018-11-28T10:42:13.700Z,71.59
2018-11-28T10:44:25.898Z,72.26
2018-11-28T10:46:38.102Z,72.17
2018-11-28T10:48:50.356Z,71.91
2018-11-28T10:51:02.577Z,70.74
2018-11-28T10:53:14.850Z,71.09
2018-11-28T10:55:27.039Z,70.14
2018-11-28T10:57:39.335Z,70.78
2018-11-28T10:59:51.491Z,71.50
2018-11-28T11:03:07.213Z,71.53
2018-11-28T11:05:25.082Z,70.59
2018-11-28T11:07:43.016Z,71.30
2018-11-28T11:10:00.968Z,70.07
2018-11-28T11:12:18.779Z,69.13
2018-11-28T11:14:36.658Z,69.99
2018-11-28T11:16:48.869Z,70.20
2018-11-28T11:19:01.085Z,69.54
2018-11-28T11:21:13.329Z,68.97
2018-11-28T11:23:25.558Z,68.54
2018-11-28T11:25:37.785Z,69.77
2018-11-28T11:27:49.961Z,69.44
2018-11-28T11:30:02.197Z,68.66
2018-11-28T11:32:14.513Z,68.76
2018-11-28T11:34:26.706Z,67.97
2018-11-28T11:36:38.862Z,68.97
2018-11-28T11:38:51.069Z,68.82
2018-11-28T11:41:03.324Z,68.47
2018-11-28T11:43:15.518Z,68.50
2018-11-28T11:45:27.763Z,68.04
2018-11-28T11:47:40.035Z,68.16
2018-11-28T11:49:52.289Z,68.54
2018-11-28T11:52:04.524Z,67.83
2018-11-28T11:54:16.705Z,68.28
2018-11-28T11:56:28.912Z,68.89
2018-11-28T11:58:41.136Z,67.95
2018-11-28T12:00:53.459Z,67.72
2018-11-28T12:03:11.569Z,67.05
2018-11-28T12:05:23.776Z,68.25
2018-11-28T12:07:36.054Z,67.45
2018-11-28T12:09:48.228Z,68.47
2018-11-28T12:12:00.444Z,67.92
2018-11-28T12:14:13.621Z,68.48
2018-11-28T12:16:25.813Z,66.81
2018-11-28T12:18:38.005Z,67.09
2018-11-28T12:20:52.004Z,66.32
2018-11-28T12:23:04.387Z,65.94
2018-11-28T12:25:16.622Z,67.17
2018-11-28T12:27:28.815Z,66.30
2018-11-28T12:29:41.025Z,64.87
2018-11-28T12:31:53.221Z,65.42
2018-11-28T12:34:05.809Z,65.75
2018-11-28T12:36:18.073Z,65.69
2018-11-28T12:38:30.254Z,65.70
2018-11-28T12:40:42.438Z,65.31
2018-11-28T12:42:54.701Z,64.77
2018-11-28T12:45:15.782Z,65.77
2018-11-28T12:47:28.033Z,66.10
2018-11-28T12:49:40.268Z,65.46
2018-11-28T12:51:52.452Z,65.63
2018-11-28T12:54:04.927Z,65.44
2018-11-28T12:56:17.101Z,64.87
2018-11-28T12:58:29.306Z,65.56
2018-11-28T13:00:41.534Z,65.48
2018-11-28T13:02:53.750Z,65.52
2018-11-28T13:05:08.330Z,64.64
2018-11-28T13:07:20.573Z,64.62
2018-11-28T13:09:32.782Z,64.79
2018-11-28T13:11:45.018Z,65.74
2018-11-28T13:13:57.270Z,65.33
2018-11-28T13:16:09.524Z,65.35
2018-11-28T13:18:21.717Z,65.64
2018-11-28T13:20:33.917Z,65.72
2018-11-28T13:22:47.060Z,65.44
2018-11-28T13:24:59.357Z,66.38
2018-11-28T13:27:11.575Z,66.57
2018-11-28T13:29:23.797Z,67.04
2018-11-28T13:31:35.998Z,67.20
2018-11-28T13:33:48.235Z,67.63
2018-11-28T13:36:00.459Z,67.83
2018-11-28T13:38:12.929Z,67.06
2018-11-28T13:40:25.117Z,67.03
2018-11-28T13:42:37.365Z,68.26
2018-11-28T13:44:49.611Z,67.32
2018-11-28T13:47:01.795Z,67.25
2018-11-28T13:49:14.082Z,67.09
2018-11-28T13:51:26.264Z,66.84
2018-11-28T13:53:38.487Z,68.07
2018-11-28T13:56:57.280Z,67.99
2018-11-28T13:58:09.133Z,66.95
2018-11-28T14:00:21.366Z,67.59
2018-11-28T14:02:33.604Z,67.80
2018-11-28T14:04:46.044Z,67.11
2018-11-28T14:06:58.301Z,67.03
2018-11-28T14:09:10.515Z,67.69
2018-11-28T14:11:22.762Z,67.62
2018-11-28T14:13:34.937Z,67.41
2018-11-28T14:15:47.191Z,66.85
2018-11-28T14:18:01.694Z,67.08
2018-11-28T14:20:13.948Z,67.87
2018-11-28T14:22:26.172Z,67.71
2018-11-28T14:24:38.412Z,66.78
2018-11-28T14:26:50.673Z,66.74
2018-11-28T14:29:02.879Z,66.47
2018-11-28T14:31:15.119Z,66.82
2018-11-28T14:33:27.434Z,66.89
2018-11-28T14:35:39.690Z,66.83
2018-11-28T14:37:52.203Z,67.20
2018-11-28T14:40:07.697Z,66.99
2018-11-28T14:42:19.877Z,66.31
2018-11-28T14:44:32.136Z,66.94
2018-11-28T14:46:44.370Z,66.66
2018-11-28T14:48:56.598Z,67.55
2018-11-28T14:51:08.812Z,67.37
2018-11-28T14:53:21.032Z,67.04
2018-11-28T14:55:34.897Z,68.39
2018-11-28T14:57:47.199Z,68.46
2018-11-28T14:59:59.377Z,67.73
2018-11-28T15:02:11.544Z,68.59
2018-11-28T15:04:23.805Z,68.36
2018-11-28T15:06:51.609Z,67.73
2018-11-28T15:10:11.346Z,68.51
2018-11-28T15:12:23.610Z,68.72
2018-11-28T15:14:35.826Z,69.10
2018-11-28T15:16:48.008Z,69.40
2018-11-28T15:19:00.237Z,68.43
2018-11-28T15:21:12.469Z,69.57
2018-11-28T15:23:24.664Z,69.79
2018-11-28T15:25:36.927Z,69.83
2018-11-28T15:27:49.146Z,69.21
2018-11-28T15:30:01.364Z,69.96
2018-11-28T15:32:13.565Z,70.15
2018-11-28T15:34:25.744Z,69.83
2018-11-28T15:36:37.920Z,70.22
2018-11-28T15:38:50.220Z,70.43
2018-11-28T15:41:02.442Z,69.95
2018-11-28T15:43:14.660Z,70.25
2018-11-28T15:45:26.889Z,70.80
2018-11-28T15:47:39.101Z,70.17
2018-11-28T15:49:51.336Z,70.02
2018-11-28T15:52:03.677Z,70.44
2018-11-28T15:54:15.871Z,70.51
2018-11-28T15:56:28.141Z,70.62
2018-11-28T15:58:40.425Z,70.72
2018-11-28T16:00:52.677Z,71.25
2018-11-28T16:03:05.441Z,71.25
2018-11-28T16:05:17.767Z,72.31
2018-11-28T16:07:30.045Z,73.65
2018-11-28T16:09:48.825Z,70.31
2018-11-28T16:12:01.121Z,69.85
2018-11-28T16:14:13.391Z,70.98
2018-11-28T16:16:25.666Z,71.35
2018-11-28T16:18:37.905Z,72.08
2018-11-28T16:20:50.189Z,71.30
2018-11-28T16:23:04.752Z,71.70
2018-11-28T16:25:14.744Z,72.15
2018-11-28T16:27:26.997Z,71.77
2018-11-28T16:29:39.268Z,72.89
2018-11-28T16:31:51.506Z,72.91
2018-11-28T16:34:03.800Z,72.50
2018-11-28T16:36:16.032Z,72.93
2018-11-28T16:38:28.292Z,73.06
2018-11-28T16:40:40.516Z,72.66
2018-11-28T16:42:52.757Z,72.89
2018-11-28T16:45:10.517Z,72.96
2018-11-28T16:47:22.705Z,72.88
2018-11-28T16:49:34.962Z,72.77
2018-11-28T16:51:47.183Z,73.84
2018-11-28T16:53:59.428Z,73.20
2018-11-28T16:56:11.689Z,73.96
2018-11-28T16:58:23.963Z,73.24
2018-11-28T17:00:38.366Z,74.08
2018-11-28T17:02:51.213Z,73.62
2018-11-28T17:05:04.907Z,74.18
2018-11-28T17:07:17.152Z,74.06
2018-11-28T17:09:29.415Z,74.78
2018-11-28T17:11:41.712Z,74.21
2018-11-28T17:13:54.016Z,74.14
2018-11-28T17:16:06.280Z,73.13
2018-11-28T17:18:18.559Z,73.37
2018-11-28T17:20:30.784Z,74.06
2018-11-28T17:22:43.219Z,73.50
2018-11-28T17:24:55.457Z,73.56
2018-11-28T17:27:07.783Z,73.42
2018-11-28T17:29:20.036Z,73.82
2018-11-28T17:31:32.301Z,73.83
2018-11-28T17:33:44.512Z,73.97
2018-11-28T17:35:56.826Z,74.22
2018-11-28T17:38:09.068Z,74.33
2018-11-28T17:40:22.656Z,74.67
2018-11-28T17:42:34.924Z,74.38
2018-11-28T17:44:47.146Z,74.67
2018-11-28T17:46:59.369Z,75.02
2018-11-28T17:49:11.642Z,74.58
2018-11-28T17:51:23.852Z,74.42
2018-11-28T17:53:36.146Z,74.36
2018-11-28T17:55:51.545Z,74.24
2018-11-28T17:58:03.809Z,75.22
2018-11-28T18:00:17.308Z,74.86
2018-11-28T18:02:29.516Z,74.68
2018-11-28T18:04:41.746Z,74.65
2018-11-28T18:06:53.973Z,74.64
2018-11-28T18:09:09.978Z,74.94
2018-11-28T18:11:22.248Z,74.77
2018-11-28T18:13:39.403Z,75.97
2018-11-28T18:15:49.335Z,75.70
2018-11-28T18:18:01.753Z,74.95
2018-11-28T18:20:14.014Z,74.92
2018-11-28T18:22:26.291Z,74.81
2018-11-28T18:24:38.496Z,75.41
2018-11-28T18:26:50.696Z,74.80
2018-11-28T18:29:02.951Z,75.77
2018-11-28T18:31:15.190Z,75.93
2018-11-28T18:33:27.471Z,75.66
2018-11-28T18:35:39.822Z,75.39
2018-11-28T18:37:52.068Z,76.10
2018-11-28T18:40:07.409Z,75.79
2018-11-28T18:42:19.678Z,75.70
2018-11-28T18:44:31.942Z,76.35
2018-11-28T18:46:44.140Z,75.46
2018-11-28T18:48:56.408Z,75.36
2018-11-28T18:51:08.609Z,76.01
2018-11-28T18:53:20.843Z,76.26
2018-11-28T18:55:33.053Z,75.76
2018-11-28T18:57:45.954Z,75.82
2018-11-28T18:59:58.193Z,76.63
2018-11-28T19:02:10.450Z,76.32
2018-11-28T19:04:22.692Z,77.06
2018-11-28T19:06:35.012Z,77.03
2018-11-28T19:08:47.275Z,76.56
2018-11-28T19:10:59.966Z,77.05
2018-11-28T19:13:11.858Z,76.93
2018-11-28T19:15:26.354Z,77.40
2018-11-28T19:17:38.702Z,77.46
2018-11-28T19:19:50.961Z,76.64
2018-11-28T19:22:03.238Z,76.63
2018-11-28T19:24:15.455Z,77.34
2018-11-28T19:26:27.708Z,76.04
2018-11-28T19:28:40.018Z,76.29
2018-11-28T19:30:52.292Z,76.38
2018-11-28T19:33:06.061Z,77.02
2018-11-28T19:35:18.418Z,77.26
2018-11-28T19:37:30.644Z,77.17
2018-11-28T19:39:42.908Z,76.44
2018-11-28T19:41:55.214Z,76.85
2018-11-28T19:44:07.426Z,77.09
2018-11-28T19:46:19.665Z,77.51
2018-11-28T19:48:31.964Z,77.76
2018-11-28T19:50:44.213Z,77.32
2018-11-28T19:52:56.466Z,78.25
2018-11-28T19:55:08.985Z,77.80
2018-11-28T19:57:21.329Z,78.28
2018-11-28T19:59:33.588Z,79.29
2018-11-28T20:01:45.810Z,79.07
2018-11-28T20:03:58.022Z,78.30
2018-11-28T20:06:10.310Z,79.22
2018-11-28T20:08:22.574Z,78.86
2018-11-28T20:10:34.966Z,77.60
2018-11-28T20:12:47.263Z,78.70
2018-11-28T20:14:59.481Z,78.72
2018-11-28T20:17:12.197Z,78.19
2018-11-28T20:19:24.511Z,78.37
2018-11-28T20:21:36.726Z,77.82
2018-11-28T20:23:48.983Z,78.52
2018-11-28T20:26:01.253Z,77.94
2018-11-28T20:28:13.602Z,78.15
2018-11-28T20:30:31.234Z,78.47
2018-11-28T20:32:43.466Z,78.39
2018-11-28T20:34:55.715Z,78.01
2018-11-28T20:37:08.001Z,78.35
2018-11-28T20:39:20.249Z,78.65
2018-11-28T20:41:32.464Z,78.14
2018-11-28T20:43:44.694Z,78.85
2018-11-28T20:45:57.005Z,78.64
2018-11-28T20:48:09.244Z,78.81
2018-11-28T20:50:25.937Z,78.36
2018-11-28T20:52:38.328Z,78.98
2018-11-28T20:54:50.617Z,77.47
2018-11-28T20:57:02.863Z,78.07
2018-11-28T20:59:15.162Z,78.12
2018-11-28T21:01:27.469Z,77.58
2018-11-28T21:03:39.679Z,78.00
2018-11-28T21:05:51.981Z,77.85
2018-11-28T21:08:04.943Z,77.17
2018-11-28T21:10:38.255Z,77.09
2018-11-28T21:12:50.568Z,77.77
2018-11-28T21:15:02.829Z,77.96
2018-11-28T21:17:15.064Z,78.46
2018-11-28T21:19:27.309Z,78.67
2018-11-28T21:21:39.562Z,78.10
2018-11-28T21:23:51.805Z,77.82
2018-11-28T21:26:04.333Z,78.31
2018-11-28T21:28:16.545Z,77.30
2018-11-28T21:30:28.848Z,78.58
2018-11-28T21:32:41.101Z,77.74
2018-11-28T21:34:53.344Z,77.73
2018-11-28T21:37:05.611Z,77.49
2018-11-28T21:39:17.861Z,76.89
2018-11-28T21:41:30.073Z,77.57
2018-11-28T21:43:42.268Z,77.25
2018-11-28T21:45:54.517Z,76.85
2018-11-28T21:48:06.883Z,77.85
2018-11-28T21:50:19.412Z,77.84
2018-11-28T21:52:31.698Z,76.88
2018-11-28T21:54:43.965Z,76.59
2018-11-28T21:56:56.868Z,76.89
2018-11-28T21:59:09.136Z,76.84
2018-11-28T22:01:21.385Z,77.73
2018-11-28T22:03:33.605Z,76.85
2018-11-28T22:05:45.841Z,77.34
2018-11-28T22:07:58.069Z,77.36
2018-11-28T22:10:20.560Z,76.93
2018-11-28T22:12:32.753Z,77.01
2018-11-28T22:14:45.053Z,76.64
2018-11-28T22:16:57.313Z,77.37
2018-11-28T22:19:09.544Z,76.32
2018-11-28T22:21:21.746Z,76.40
2018-11-28T22:23:34.047Z,76.52
2018-11-28T22:25:46.248Z,76.78
2018-11-28T22:27:58.420Z,77.48
2018-11-28T22:30:11.777Z,76.62
2018-11-28T22:32:23.971Z,76.67
2018-11-28T22:34:36.213Z,75.92
2018-11-28T22:36:48.393Z,75.78
2018-11-28T22:39:00.640Z,75.62
2018-11-28T22:41:12.961Z,75.68
2018-11-28T22:43:25.140Z,75.24
2018-11-28T22:45:37.390Z,76.64
2018-11-28T22:47:49.631Z,76.31
2018-11-28T22:50:01.897Z,75.61
2018-11-28T22:52:14.147Z,75.52
2018-11-28T22:54:26.387Z,76.54
2018-11-28T22:56:38.572Z,75.84
2018-11-28T22:58:50.774Z,75.50
2018-11-28T23:01:09.993Z,75.81
2018-11-28T23:03:22.215Z,76.60
2018-11-28T23:05:38.526Z,76.57
2018-11-28T23:07:50.709Z,76.38
2018-11-28T23:10:03.683Z,75.54
2018-11-28T23:12:15.900Z,75.76
2018-11-28T23:14:28.064Z,76.14
2018-11-28T23:16:40.269Z,75.76
2018-11-28T23:18:52.541Z,76.53
2018-11-28T23:21:05.179Z,75.71
2018-11-28T23:23:17.370Z,75.95
2018-11-28T23:25:29.573Z,76.12
2018-11-28T23:27:41.837Z,76.03
2018-11-28T23:29:54.016Z,75.62
2018-11-28T23:32:06.215Z,76.25
2018-11-28T23:34:18.409Z,76.25
2018-11-28T23:36:30.642Z,75.54
2018-11-28T23:38:42.835Z,75.50
2018-11-28T23:40:54.995Z,75.70
2018-11-28T23:43:07.265Z,75.13
2018-11-28T23:45:19.494Z,75.60
2018-11-28T23:47:31.703Z,76.44
2018-11-28T23:49:43.909Z,75.62
2018-11-28T23:51:56.113Z,76.28
2018-11-28T23:54:08.313Z,76.14
2018-11-28T23:56:20.472Z,75.49
2018-11-28T23:58:32.652Z,75.74
